createdAt,value
2024-01-11T00:04:56.102Z,24.47
2024-01-11T00:09:59.275Z,24.07
2024-01-11T00:15:03.825Z,25.60
2024-01-11T00:20:08.798Z,23.77
2024-01-11T00:25:11.963Z,24.67
2024-01-11T00:30:16.840Z,24.43
2024-01-11T00:35:20.244Z,25.37
2024-01-11T00:40:23.509Z,24.70
2024-01-11T00:45:27.957Z,24.83
2024-01-11T00:50:31.538Z,24.27
2024-01-11T00:55:34.665Z,24.07
2024-01-11T01:00:39.255Z,24.33
2024-01-11T01:05:42.580Z,24.27
2024-01-11T01:10:45.804Z,23.70
2024-01-11T01:15:50.362Z,25.17
2024-01-11T01:20:53.703Z,24.97
2024-01-11T01:25:57.067Z,24.97
2024-01-11T01:31:01.641Z,25.43
2024-01-11T01:36:05.392Z,25.50
2024-01-11T01:41:08.873Z,24.77
2024-01-11T01:46:16.188Z,24.93
2024-01-11T01:51:20.029Z,25.40
2024-01-11T01:56:23.671Z,25.93
2024-01-11T02:01:28.932Z,25.27
2024-01-11T02:06:35.486Z,26.87
2024-01-11T02:11:40.306Z,25.73
2024-01-11T02:16:44.811Z,26.23
2024-01-11T02:21:50.450Z,26.03
2024-01-11T02:27:02.049Z,26.30
2024-01-11T02:32:06.401Z,25.47
2024-01-11T02:37:09.702Z,26.53
2024-01-11T02:42:14.747Z,27.03
2024-01-11T02:47:18.094Z,26.67
2024-01-11T02:52:21.411Z,28.43
2024-01-11T02:57:25.867Z,28.53
2024-01-11T03:02:29.458Z,26.43
2024-01-11T03:07:33.641Z,27.83
2024-01-11T03:12:38.583Z,27.57
2024-01-11T03:17:41.803Z,26.57
2024-01-11T03:22:48.170Z,26.67
2024-01-11T03:27:52.627Z,27.77
2024-01-11T03:32:55.971Z,28.30
2024-01-11T03:37:59.497Z,28.77
2024-01-11T03:43:04.131Z,28.97
2024-01-11T03:48:08.319Z,28.93
2024-01-11T03:53:11.992Z,27.33
2024-01-11T03:58:16.458Z,27.93
2024-01-11T04:03:19.580Z,28.70
2024-01-11T04:08:22.933Z,28.83
2024-01-11T04:13:27.449Z,28.10
2024-01-11T04:18:30.819Z,24.67
2024-01-11T04:23:34.023Z,25.93
2024-01-11T04:28:38.990Z,26.00
2024-01-11T04:33:42.692Z,25.33
2024-01-11T04:38:46.815Z,25.17
2024-01-11T04:43:51.446Z,26.13
2024-01-11T04:48:55.080Z,25.03
2024-01-11T04:53:58.431Z,25.83
2024-01-11T04:59:03.022Z,24.93
2024-01-11T05:04:06.166Z,25.10
2024-01-11T05:09:09.593Z,24.90
2024-01-11T05:14:14.074Z,25.33
2024-01-11T05:19:17.340Z,25.27
2024-01-11T05:24:20.488Z,24.00
2024-01-11T05:29:25.056Z,25.73
2024-01-11T05:34:28.311Z,25.70
2024-01-11T05:39:31.781Z,25.27
2024-01-11T05:44:36.295Z,25.03
2024-01-11T05:49:39.413Z,25.90
2024-01-11T05:54:42.588Z,25.93
2024-01-11T05:59:47.422Z,26.60
2024-01-11T06:04:50.633Z,25.87
2024-01-11T06:09:54.193Z,27.73
2024-01-11T06:14:58.766Z,28.50
2024-01-11T06:20:01.988Z,29.07
2024-01-11T06:25:05.600Z,27.37
2024-01-11T06:30:11.057Z,30.90
2024-01-11T06:35:14.425Z,30.40
2024-01-11T06:40:17.581Z,30.07
2024-01-11T06:45:22.440Z,28.90
2024-01-11T06:50:25.648Z,29.47
2024-01-11T06:55:29.184Z,30.13
2024-01-11T07:00:33.713Z,32.10
2024-01-11T07:05:36.933Z,31.20
2024-01-11T07:10:40.258Z,30.67
2024-01-11T07:15:44.892Z,30.53
2024-01-11T07:20:49.013Z,31.80
2024-01-11T07:25:52.845Z,30.27
2024-01-11T07:30:57.458Z,28.37
2024-01-11T07:36:00.723Z,29.50
2024-01-11T07:41:04.351Z,29.93
2024-01-11T07:46:09.014Z,29.53
2024-01-11T07:51:12.204Z,29.70
2024-01-11T07:56:15.775Z,28.87
2024-01-11T08:01:20.983Z,28.37
2024-01-11T08:06:24.207Z,29.30
2024-01-11T08:11:29.141Z,30.27
2024-01-11T08:16:35.763Z,28.93
2024-01-11T08:21:38.860Z,29.37
2024-01-11T08:26:42.062Z,28.87
2024-01-11T08:31:47.020Z,29.87
2024-01-11T08:36:50.147Z,29.70
2024-01-11T08:41:53.671Z,29.90
2024-01-11T08:47:00.461Z,29.57
2024-01-11T08:52:04.304Z,29.10
2024-01-11T08:57:07.433Z,29.60
2024-01-11T09:02:15.833Z,29.53
2024-01-11T09:07:22.149Z,30.43
2024-01-11T09:12:25.318Z,29.73
2024-01-11T09:17:29.888Z,28.40
2024-01-11T09:22:33.739Z,29.30
2024-01-11T09:27:36.981Z,30.10
2024-01-11T09:32:41.674Z,29.30
2024-01-11T09:37:47.225Z,30.27
2024-01-11T09:42:50.756Z,30.53
2024-01-11T09:47:55.679Z,29.03
2024-01-11T09:52:59.143Z,28.63
2024-01-11T09:58:02.909Z,28.23
2024-01-11T10:03:07.528Z,28.30
2024-01-11T10:08:10.996Z,27.93
2024-01-11T10:13:14.247Z,26.87
2024-01-11T10:18:22.241Z,27.50
2024-01-11T10:23:25.943Z,25.80
2024-01-11T10:28:29.390Z,26.47
2024-01-11T10:33:36.727Z,26.47
2024-01-11T10:38:41.621Z,24.40
2024-01-11T10:43:45.779Z,26.73
2024-01-11T10:48:57.811Z,25.30
2024-01-11T10:54:03.033Z,26.43
2024-01-11T10:59:06.683Z,26.87
2024-01-11T11:04:12.845Z,27.27
2024-01-11T11:09:17.006Z,27.03
2024-01-11T11:14:21.207Z,26.97
2024-01-11T11:19:26.692Z,28.17
2024-01-11T11:24:31.073Z,26.73
2024-01-11T11:29:34.441Z,27.33
2024-01-11T11:34:45.810Z,26.53
2024-01-11T11:39:49.359Z,25.80
2024-01-11T11:44:53.290Z,25.20
2024-01-11T11:50:05.591Z,25.93
2024-01-11T11:55:10.596Z,25.77
2024-01-11T12:00:15.596Z,25.90
2024-01-11T12:05:20.802Z,26.00
2024-01-11T12:10:24.145Z,25.40
2024-01-11T12:15:29.173Z,25.13
2024-01-11T12:20:34.440Z,25.23
2024-01-11T12:25:38.195Z,24.00
2024-01-11T12:30:41.719Z,24.90
2024-01-11T12:35:46.605Z,23.57
2024-01-11T12:40:50.400Z,22.30
2024-01-11T12:45:55.421Z,22.80
2024-01-11T12:51:10.565Z,22.63
2024-01-11T12:56:23.061Z,21.73
2024-01-11T13:01:26.790Z,21.77
2024-01-11T13:06:32.548Z,20.03
2024-01-11T13:11:35.987Z,18.27
2024-01-11T13:16:39.338Z,18.23
2024-01-11T13:21:43.833Z,17.63
2024-01-11T13:26:47.015Z,16.23
2024-01-11T13:31:50.184Z,16.30
2024-01-11T13:36:54.684Z,16.83
2024-01-11T13:41:57.807Z,15.97
2024-01-11T13:47:01.332Z,17.37
2024-01-11T13:52:07.391Z,16.37
2024-01-11T13:57:10.524Z,16.73
2024-01-11T14:02:13.788Z,15.43
2024-01-11T14:07:18.402Z,15.60
2024-01-11T14:12:22.038Z,15.70
2024-01-11T14:17:25.169Z,14.40
2024-01-11T14:22:29.633Z,13.53
2024-01-11T14:27:33.131Z,13.77
2024-01-11T14:32:37.840Z,11.93
2024-01-11T14:37:43.970Z,11.83
2024-01-11T14:42:47.146Z,11.40
2024-01-11T14:47:50.779Z,10.70
2024-01-11T14:52:55.334Z,10.40
2024-01-11T14:58:00.328Z,11.17
2024-01-11T15:03:05.062Z,11.67
2024-01-11T15:08:10.270Z,12.30
2024-01-11T15:13:13.582Z,11.23
2024-01-11T15:18:16.952Z,10.90
2024-01-11T15:23:21.700Z,10.70
2024-01-11T15:28:24.884Z,16.30
2024-01-11T15:33:28.078Z,11.07
2024-01-11T15:38:32.728Z,10.50
2024-01-11T15:43:35.814Z,10.70
2024-01-11T15:48:39.076Z,11.43
2024-01-11T15:53:44.882Z,10.80
2024-01-11T15:58:48.140Z,11.07
2024-01-11T16:03:53.230Z,10.80
2024-01-11T16:08:57.882Z,11.57
2024-01-11T16:14:01.644Z,12.63
2024-01-11T16:19:04.890Z,15.10
2024-01-11T16:24:09.457Z,12.70
2024-01-11T16:29:12.629Z,13.60
2024-01-11T16:34:15.850Z,13.07
2024-01-11T16:39:20.328Z,13.30
2024-01-11T16:44:23.475Z,13.50
2024-01-11T16:49:26.616Z,15.57
2024-01-11T16:54:31.032Z,12.07
2024-01-11T16:59:36.122Z,11.70
2024-01-11T17:04:41.419Z,10.57
2024-01-11T17:09:45.884Z,10.50
2024-01-11T17:14:49.049Z,9.77
2024-01-11T17:19:52.275Z,10.10
2024-01-11T17:24:58.777Z,13.37
2024-01-11T17:30:01.982Z,16.07
2024-01-11T17:35:06.159Z,14.67
2024-01-11T17:40:12.274Z,15.93
2024-01-11T17:45:15.471Z,16.03
2024-01-11T17:50:18.620Z,16.47
2024-01-11T17:55:23.472Z,18.27
2024-01-11T18:00:30.863Z,20.40
2024-01-11T18:05:34.155Z,20.77
2024-01-11T18:10:39.425Z,29.30
2024-01-11T18:15:42.754Z,25.23
2024-01-11T18:20:46.005Z,26.53
2024-01-11T18:25:50.660Z,21.63
2024-01-11T18:30:53.881Z,18.67
2024-01-11T18:35:57.460Z,20.07
2024-01-11T18:41:02.150Z,27.60
2024-01-11T18:46:06.776Z,19.97
2024-01-11T18:51:09.994Z,18.83
2024-01-11T18:56:17.362Z,19.23
2024-01-11T19:01:26.289Z,20.83
2024-01-11T19:06:30.875Z,20.00
2024-01-11T19:11:35.488Z,20.10
2024-01-11T19:16:38.796Z,18.23
2024-01-11T19:21:41.910Z,16.50
2024-01-11T19:26:50.570Z,15.23
2024-01-11T19:31:53.742Z,14.30
2024-01-11T19:36:56.886Z,13.90
2024-01-11T19:42:01.625Z,14.63
2024-01-11T19:47:05.065Z,14.13
2024-01-11T19:52:08.238Z,14.77
2024-01-11T19:57:12.681Z,14.23
2024-01-11T20:02:15.846Z,16.20
2024-01-11T20:07:19.904Z,18.03
2024-01-11T20:12:24.504Z,14.57
2024-01-11T20:17:27.699Z,15.57
2024-01-11T20:22:30.873Z,14.50
2024-01-11T20:27:36.160Z,15.40
2024-01-11T20:32:39.708Z,15.77
2024-01-11T20:37:43.201Z,17.33
2024-01-11T20:42:47.666Z,16.27
2024-01-11T20:47:51.569Z,16.70
2024-01-11T20:52:54.827Z,17.13
2024-01-11T20:57:59.336Z,17.13
2024-01-11T21:03:02.758Z,17.70
2024-01-11T21:08:06.704Z,17.37
2024-01-11T21:13:12.798Z,15.63
2024-01-11T21:18:16.341Z,16.17
2024-01-11T21:23:19.847Z,14.00
2024-01-11T21:28:24.319Z,14.97
2024-01-11T21:33:27.498Z,13.63
2024-01-11T21:38:30.662Z,13.07
2024-01-11T21:43:35.222Z,13.47
2024-01-11T21:48:38.480Z,12.87
2024-01-11T21:53:42.682Z,16.17
2024-01-11T21:58:47.173Z,14.90
2024-01-11T22:03:50.349Z,14.87
2024-01-11T22:08:58.659Z,14.83
2024-01-11T22:14:03.923Z,13.63
2024-01-11T22:19:08.492Z,15.60
2024-01-11T22:24:11.721Z,15.27
2024-01-11T22:29:16.531Z,14.13
2024-01-11T22:34:19.819Z,15.03
2024-01-11T22:39:23.097Z,13.63
2024-01-11T22:44:28.117Z,12.63
2024-01-11T22:49:31.274Z,13.63
2024-01-11T22:54:35.173Z,13.07
2024-01-11T22:59:39.822Z,12.37
2024-01-11T23:04:42.967Z,13.83
2024-01-11T23:09:46.073Z,11.83
2024-01-11T23:14:50.639Z,11.07
2024-01-11T23:19:53.778Z,10.80
2024-01-11T23:24:56.960Z,9.60
2024-01-11T23:30:01.588Z,9.63
2024-01-11T23:35:05.206Z,8.70
2024-01-11T23:40:10.116Z,8.40
2024-01-11T23:45:14.930Z,7.80
2024-01-11T23:50:18.440Z,7.90
2024-01-11T23:55:21.851Z,7.87
